Warroad, MN

6:26 AM CST on February 06, 2016 (GMT -0600)
Warroad International-Carlson

Weather History for KRRT - October, 2011

Change the Weather History Date:

Friday, October 21, 2011

  Actual Average (KFGN) Record (KFGN)
Temperature  
Mean Temperature 42 °F -  
Max Temperature 55 °F 42 °F - (-1)
Min Temperature 30 °F 33 °F - (-1)
Degree Days  
Heating Degree Days 22    
Moisture  
Dew Point 33 °F    
Average Humidity 72    
Maximum Humidity 93    
Minimum Humidity 51    
Precipitation  
Precipitation 0.00 in - - ()
Sea Level Pressure  
Sea Level Pressure 29.91 in    
Wind  
Wind Speed 5 mph (SW)    
Max Wind Speed 13 mph    
Max Gust Speed 18 mph    
Visibility 10 miles    
Events      
Averages and records for this station are not official NWS values.
T = Trace of Precipitation, MM = Missing Value Source: NWS Daily Summary

Daily Weather History Graph

Daily Weather History Graph

Search for Another Location

Airport or City:

Trip Planner

Search our weather history database for the weather conditions in past years. The results will help you decide how hot, cold, wet, or windy it might be!

Date:

Astronomy

Oct. 21, 2011 Rise Set
Actual Time 7:50 AM CDT 6:20 PM CDT
Civil Twilight 7:18 AM CDT 6:52 PM CDT
Nautical Twilight 6:41 AM CDT 7:29 PM CDT
Astronomical Twilight 6:05 AM CDT 8:05 PM CDT
Moon 1:11 AM CDT (10/21) 3:32 PM CDT (10/21)
Length of Visible Light 11h 34m
Length of Day
10h 29m
Waning Crescent, 33% of the Moon is Illuminated
Oct 21
Waning Crescent
Oct 26
New
Nov 2
First Quarter
Nov 10
Full
Nov 18
Last Quarter

Hourly Weather History & Observations

Time (CDT) Temp. Windchill Dew Point Humidity Pressure Visibility Wind Dir Wind Speed Gust Speed Precip Events Conditions
12:14 AM 33.8 °F - 28.4 °F 81% 29.93 in 10.0 mi Calm Calm - N/A   Clear
12:34 AM 32.0 °F 27.5 °F 28.4 °F 87% 29.93 in 10.0 mi South 4.6 mph - N/A   Clear
12:54 AM 32.0 °F - 28.4 °F 87% 29.92 in 10.0 mi Calm Calm - N/A   Clear
1:13 AM 30.2 °F 26.7 °F 28.4 °F 93% 29.92 in 10.0 mi SSE 3.5 mph - N/A   Clear
1:34 AM 32.0 °F 27.5 °F 28.4 °F 87% 29.92 in 10.0 mi South 4.6 mph - N/A   Clear
1:54 AM 32.0 °F 27.5 °F 28.4 °F 87% 29.92 in 10.0 mi South 4.6 mph - N/A   Clear
2:14 AM 32.0 °F 28.7 °F 28.4 °F 87% 29.91 in 10.0 mi South 3.5 mph - N/A   Clear
2:34 AM 32.0 °F 27.5 °F 28.4 °F 87% 29.91 in 10.0 mi South 4.6 mph - N/A   Clear
2:54 AM 32.0 °F 26.4 °F 28.4 °F 87% 29.91 in 10.0 mi South 5.8 mph - N/A   Clear
3:14 AM 32.0 °F 27.5 °F 28.4 °F 87% 29.90 in 10.0 mi South 4.6 mph - N/A   Clear
3:33 AM 33.8 °F 28.6 °F 28.4 °F 81% 29.90 in 10.0 mi South 5.8 mph - N/A   Clear
3:54 AM 33.8 °F 28.6 °F 28.4 °F 81% 29.89 in 10.0 mi South 5.8 mph - N/A   Clear
4:14 AM 33.8 °F 29.6 °F 30.2 °F 87% 29.88 in 10.0 mi South 4.6 mph - N/A   Clear
4:33 AM 33.8 °F 27.7 °F 30.2 °F 87% 29.87 in 10.0 mi SSE 6.9 mph - N/A   Clear
4:54 AM 35.6 °F 29.9 °F 30.2 °F 81% 29.87 in 10.0 mi SSE 6.9 mph - N/A   Clear
5:14 AM 35.6 °F 31.7 °F 30.2 °F 81% 29.87 in 10.0 mi South 4.6 mph - N/A   Clear
5:33 AM 35.6 °F 31.7 °F 30.2 °F 81% 29.87 in 10.0 mi South 4.6 mph - N/A   Clear
5:54 AM 35.6 °F 31.7 °F 30.2 °F 81% 29.88 in 10.0 mi South 4.6 mph - N/A   Clear
6:14 AM 35.6 °F 31.7 °F 30.2 °F 81% 29.87 in 10.0 mi South 4.6 mph - N/A   Clear
6:54 AM 35.6 °F 30.7 °F 30.2 °F 81% 29.86 in 10.0 mi South 5.8 mph - N/A   Clear
7:13 AM 35.6 °F 31.7 °F 30.2 °F 81% 29.86 in 10.0 mi South 4.6 mph - N/A   Clear
7:34 AM 35.6 °F 30.7 °F 30.2 °F 81% 29.86 in 10.0 mi South 5.8 mph - N/A   Clear
7:54 AM 35.6 °F 30.7 °F 30.2 °F 81% 29.86 in 10.0 mi South 5.8 mph - N/A   Clear
8:14 AM 35.6 °F 31.7 °F 30.2 °F 81% 29.87 in 10.0 mi South 4.6 mph - N/A   Clear
8:34 AM 35.6 °F 31.7 °F 30.2 °F 81% 29.87 in 10.0 mi SSW 4.6 mph - N/A   Clear
8:53 AM 37.4 °F 32.8 °F 30.2 °F 75% 29.87 in 10.0 mi SSW 5.8 mph - N/A   Clear
9:14 AM 37.4 °F 31.4 °F 32.0 °F 81% 29.87 in 10.0 mi SSW 8.1 mph - N/A   Clear
9:34 AM 39.2 °F 33.6 °F 32.0 °F 75% 29.87 in 10.0 mi SSW 8.1 mph - N/A   Clear
9:54 AM 39.2 °F 33.0 °F 32.0 °F 75% 29.87 in 10.0 mi SSW 9.2 mph - N/A   Clear
10:14 AM 41.0 °F 35.2 °F 33.8 °F 76% 29.87 in 10.0 mi SW 9.2 mph - N/A   Clear
10:34 AM 42.8 °F 38.0 °F 33.8 °F 70% 29.87 in 10.0 mi SW 8.1 mph - N/A   Clear
10:54 AM 42.8 °F 37.0 °F 33.8 °F 70% 29.87 in 10.0 mi West 10.4 mph - N/A   Clear
11:14 AM 44.6 °F 39.7 °F 33.8 °F 66% 29.88 in 10.0 mi WSW 9.2 mph - N/A   Clear
11:34 AM 44.6 °F 40.2 °F 35.6 °F 71% 29.88 in 10.0 mi West 8.1 mph - N/A   Clear
11:53 AM 46.4 °F 42.4 °F 35.6 °F 66% 29.88 in 10.0 mi WSW 8.1 mph - N/A   Clear
12:14 PM 46.4 °F 41.9 °F 35.6 °F 66% 29.89 in 10.0 mi WSW 9.2 mph 16.1 mph N/A   Clear
12:34 PM 48.2 °F - 35.6 °F 62% 29.89 in 10.0 mi WSW 9.2 mph - N/A   Clear
12:54 PM 51.8 °F - 37.4 °F 58% 29.89 in 10.0 mi West 11.5 mph - N/A   Clear
1:13 PM 51.8 °F - 37.4 °F 58% 29.89 in 10.0 mi West 10.4 mph - N/A   Clear
1:33 PM 53.6 °F - 37.4 °F 54% 29.89 in 10.0 mi WNW 8.1 mph - N/A   Clear
1:50 PM 53.6 °F - 37.4 °F 54% 29.89 in 10.0 mi WNW 12.7 mph - N/A   Clear
2:09 PM 55.4 °F - 37.4 °F 51% 29.89 in 10.0 mi West 9.2 mph - N/A   Clear
2:33 PM 55.4 °F - 37.4 °F 51% 29.89 in 10.0 mi West 11.5 mph 17.3 mph N/A   Clear
2:54 PM 55.4 °F - 37.4 °F 51% 29.90 in 10.0 mi WNW 10.4 mph - N/A   Clear
3:14 PM 55.4 °F - 37.4 °F 51% 29.90 in 10.0 mi WNW 10.4 mph 16.1 mph N/A   Clear
3:34 PM 55.4 °F - 37.4 °F 51% 29.91 in 10.0 mi WNW 12.7 mph 18.4 mph N/A   Clear
3:54 PM 55.4 °F - 37.4 °F 51% 29.91 in 10.0 mi WNW 12.7 mph 17.3 mph N/A   Clear
4:14 PM 55.4 °F - 37.4 °F 51% 29.92 in 10.0 mi WNW 8.1 mph - N/A   Clear
4:33 PM 53.6 °F - 39.2 °F 58% 29.93 in 10.0 mi WNW 8.1 mph - N/A   Clear
4:54 PM 53.6 °F - 37.4 °F 54% 29.94 in 10.0 mi NW 8.1 mph - N/A   Clear
5:14 PM 53.6 °F - 39.2 °F 58% 29.94 in 10.0 mi NW 6.9 mph - N/A   Clear
5:34 PM 51.8 °F - 37.4 °F 58% 29.95 in 10.0 mi WNW 6.9 mph - N/A   Clear
5:54 PM 51.8 °F - 37.4 °F 58% 29.95 in 10.0 mi WNW 4.6 mph - N/A   Clear
6:13 PM 51.8 °F - 37.4 °F 58% 29.96 in 10.0 mi NW 8.1 mph - N/A   Clear
6:34 PM 48.2 °F - 37.4 °F 66% 29.97 in 10.0 mi NW 5.8 mph - N/A   Clear
6:54 PM 46.4 °F 45.2 °F 37.4 °F 71% 29.98 in 10.0 mi NW 3.5 mph - N/A   Clear
7:14 PM 44.6 °F - 37.4 °F 76% 29.98 in 10.0 mi Calm Calm - N/A   Clear
7:34 PM 44.6 °F - 37.4 °F 76% 29.99 in 10.0 mi Calm Calm - N/A   Clear
7:54 PM 42.8 °F - 37.4 °F 81% 29.99 in 10.0 mi Calm Calm - N/A   Clear
8:14 PM 42.8 °F 41.1 °F 37.4 °F 81% 30.00 in 10.0 mi WNW 3.5 mph - N/A   Clear
8:34 PM 42.8 °F 41.1 °F 35.6 °F 76% 30.00 in 10.0 mi West 3.5 mph - N/A   Clear
8:53 PM 42.8 °F 40.1 °F 35.6 °F 76% 30.00 in 10.0 mi West 4.6 mph - N/A   Clear
9:14 PM 42.8 °F 40.1 °F 35.6 °F 76% 30.01 in 10.0 mi West 4.6 mph - N/A   Clear
9:34 PM 41.0 °F 39.0 °F 35.6 °F 81% 30.01 in 10.0 mi WNW 3.5 mph - N/A   Clear
9:54 PM 39.2 °F - 35.6 °F 87% 30.01 in 10.0 mi Calm Calm - N/A   Clear
10:14 PM 37.4 °F - 33.8 °F 87% 30.02 in 10.0 mi Calm Calm - N/A   Clear
10:33 PM 37.4 °F 34.9 °F 33.8 °F 87% 30.02 in 10.0 mi WNW 3.5 mph - N/A   Clear
10:54 PM 35.6 °F - 30.2 °F 81% 30.02 in 10.0 mi Calm Calm - N/A   Clear
11:13 PM 35.6 °F - 30.2 °F 81% 30.02 in 10.0 mi Calm Calm - N/A   Clear
11:34 PM 33.8 °F - 30.2 °F 87% 30.03 in 10.0 mi Calm Calm - N/A   Clear
11:54 PM 32.0 °F - 28.4 °F 87% 30.03 in 10.0 mi Calm Calm - N/A   Clear